createdAt,value
2018-12-29T00:02:13.969Z,84.77
2018-12-29T00:04:42.716Z,85.23
2018-12-29T00:07:11.317Z,85.15
2018-12-29T00:09:39.864Z,85.16
2018-12-29T00:12:08.482Z,85.00
2018-12-29T00:14:37.150Z,85.48
2018-12-29T00:17:05.990Z,85.14
2018-12-29T00:19:35.691Z,84.37
2018-12-29T00:22:04.332Z,84.36
2018-12-29T00:24:32.810Z,84.36
2018-12-29T00:27:01.723Z,84.84
2018-12-29T00:29:30.236Z,84.84
2018-12-29T00:32:00.340Z,85.26
2018-12-29T00:34:28.864Z,85.26
2018-12-29T00:36:57.631Z,84.93
2018-12-29T00:39:26.191Z,85.18
2018-12-29T00:41:54.761Z,84.90
2018-12-29T00:44:23.301Z,85.20
2018-12-29T00:46:51.833Z,85.14
2018-12-29T00:49:20.282Z,84.70
2018-12-29T00:51:48.719Z,84.75
2018-12-29T00:54:17.198Z,84.56
2018-12-29T00:56:45.721Z,84.56
2018-12-29T00:59:14.281Z,84.66
2018-12-29T01:01:42.945Z,84.46
2018-12-29T01:04:11.471Z,84.32
2018-12-29T01:06:40.067Z,84.49
2018-12-29T01:09:08.603Z,84.48
2018-12-29T01:11:37.166Z,84.56
2018-12-29T01:14:06.752Z,84.40
2018-12-29T01:16:35.567Z,84.55
2018-12-29T01:19:04.307Z,84.66
2018-12-29T01:21:32.814Z,84.56
2018-12-29T01:24:01.785Z,84.61
2018-12-29T01:26:30.449Z,84.78
2018-12-29T01:28:59.744Z,84.89
2018-12-29T01:31:28.255Z,84.67
2018-12-29T01:33:56.811Z,84.67
2018-12-29T01:36:25.374Z,84.53
2018-12-29T01:38:53.860Z,84.84
2018-12-29T01:41:22.487Z,84.60
2018-12-29T01:43:50.877Z,84.61
2018-12-29T01:46:19.521Z,84.78
2018-12-29T01:48:48.099Z,84.75
2018-12-29T01:51:16.697Z,84.77
2018-12-29T01:53:47.428Z,85.29
2018-12-29T01:56:15.977Z,85.14
2018-12-29T01:58:44.511Z,85.30
2018-12-29T02:01:13.551Z,85.10
2018-12-29T02:03:42.243Z,84.35
2018-12-29T02:06:11.065Z,84.97
2018-12-29T02:08:39.640Z,84.97
2018-12-29T02:11:08.459Z,84.96
2018-12-29T02:13:37.068Z,85.10
2018-12-29T02:16:05.591Z,85.41
2018-12-29T02:18:34.046Z,85.85
2018-12-29T02:21:02.655Z,85.85
2018-12-29T02:23:31.087Z,85.28
2018-12-29T02:25:59.552Z,85.26
2018-12-29T02:28:28.411Z,85.56
2018-12-29T02:30:56.879Z,85.24
2018-12-29T02:33:25.475Z,85.17
2018-12-29T02:35:54.047Z,85.17
2018-12-29T02:38:22.492Z,85.57
2018-12-29T02:40:50.928Z,85.38
2018-12-29T02:43:19.454Z,86.04
2018-12-29T02:45:48.275Z,86.15
2018-12-29T02:48:16.881Z,85.96
2018-12-29T02:50:45.512Z,85.97
2018-12-29T02:53:14.300Z,85.94
2018-12-29T02:55:42.784Z,85.55
2018-12-29T02:58:11.347Z,85.17
2018-12-29T03:00:39.911Z,85.17
2018-12-29T03:03:09.965Z,85.14
2018-12-29T03:05:38.501Z,85.53
2018-12-29T03:08:07.207Z,85.12
2018-12-29T03:10:35.663Z,85.12
2018-12-29T03:13:04.229Z,85.29
2018-12-29T03:15:32.737Z,85.19
2018-12-29T03:18:01.351Z,84.33
2018-12-29T03:20:29.858Z,84.33
2018-12-29T03:22:58.337Z,84.00
2018-12-29T03:25:27.256Z,84.15
2018-12-29T03:27:55.797Z,84.15
2018-12-29T03:30:24.539Z,84.25
2018-12-29T03:32:53.294Z,84.25
2018-12-29T03:35:22.111Z,84.15
2018-12-29T03:37:50.829Z,84.23
2018-12-29T03:40:19.349Z,84.14
2018-12-29T03:42:48.024Z,83.96
2018-12-29T03:45:16.494Z,83.90
2018-12-29T03:47:45.117Z,83.98
2018-12-29T03:50:13.679Z,83.83
2018-12-29T03:52:42.230Z,83.89
2018-12-29T03:55:10.862Z,83.86
2018-12-29T03:57:39.308Z,83.96
2018-12-29T04:00:08.243Z,83.82
2018-12-29T04:02:36.764Z,84.03
2018-12-29T04:05:05.555Z,83.94
2018-12-29T04:07:40.112Z,83.93
2018-12-29T04:10:16.094Z,83.74
2018-12-29T04:12:46.997Z,83.73
2018-12-29T04:15:15.488Z,84.01
2018-12-29T04:17:44.035Z,84.01
2018-12-29T04:20:12.524Z,83.13
2018-12-29T04:22:41.349Z,83.13
2018-12-29T04:25:09.990Z,83.20
2018-12-29T04:27:38.621Z,83.46
2018-12-29T04:30:08.428Z,83.25
2018-12-29T04:32:37.057Z,83.61
2018-12-29T04:35:06.363Z,83.25
2018-12-29T04:37:35.273Z,83.20
2018-12-29T04:40:03.855Z,83.35
2018-12-29T04:42:32.930Z,83.45
2018-12-29T04:45:01.744Z,83.63
2018-12-29T04:47:30.474Z,83.34
2018-12-29T04:49:59.056Z,83.34
2018-12-29T04:52:27.597Z,83.13
2018-12-29T04:54:56.094Z,83.22
2018-12-29T04:57:24.629Z,83.36
2018-12-29T04:59:53.343Z,83.49
2018-12-29T05:02:21.845Z,83.39
2018-12-29T05:04:50.467Z,83.39
2018-12-29T05:07:19.071Z,83.54
2018-12-29T05:09:47.577Z,83.06
2018-12-29T05:12:16.204Z,83.26
2018-12-29T05:14:44.846Z,83.08
2018-12-29T05:17:13.348Z,82.81
2018-12-29T05:19:41.932Z,83.05
2018-12-29T05:22:10.415Z,82.89
2018-12-29T05:24:39.535Z,82.89
2018-12-29T05:27:08.099Z,82.93
2018-12-29T05:29:36.552Z,83.05
2018-12-29T05:32:05.010Z,83.02
2018-12-29T05:34:33.536Z,83.02
2018-12-29T05:37:02.038Z,82.74
2018-12-29T05:39:31.013Z,82.59
2018-12-29T05:41:59.438Z,82.64
2018-12-29T05:44:27.869Z,82.64
2018-12-29T05:46:56.300Z,82.70
2018-12-29T05:49:25.326Z,82.70
2018-12-29T05:51:53.793Z,82.81
2018-12-29T05:54:22.327Z,82.55
2018-12-29T05:56:50.818Z,82.69
2018-12-29T05:59:19.268Z,82.68
2018-12-29T06:01:47.771Z,82.58
2018-12-29T06:04:16.257Z,82.58
2018-12-29T06:06:44.782Z,82.75
2018-12-29T06:09:13.267Z,82.61
2018-12-29T06:11:41.850Z,82.69
2018-12-29T06:14:10.430Z,82.76
2018-12-29T06:16:38.906Z,82.89
2018-12-29T06:19:07.395Z,82.63
2018-12-29T06:21:35.845Z,82.44
2018-12-29T06:24:04.316Z,82.74
2018-12-29T06:26:32.875Z,83.29
2018-12-29T06:29:01.464Z,83.29
2018-12-29T06:31:29.977Z,83.15
2018-12-29T06:33:58.474Z,83.32
2018-12-29T06:36:26.958Z,83.40
2018-12-29T06:38:55.669Z,83.74
2018-12-29T06:41:24.209Z,83.53
2018-12-29T06:43:52.706Z,83.27
2018-12-29T06:46:21.280Z,83.62
2018-12-29T06:48:50.047Z,83.62
2018-12-29T06:51:18.828Z,84.08
2018-12-29T06:53:47.255Z,84.29
2018-12-29T06:56:15.744Z,85.37
2018-12-29T06:58:44.286Z,85.37
2018-12-29T07:01:12.979Z,85.37
2018-12-29T07:03:41.499Z,85.69
2018-12-29T07:06:09.995Z,86.10
2018-12-29T07:08:38.456Z,86.63
2018-12-29T07:11:06.960Z,86.91
2018-12-29T07:13:35.488Z,86.75
2018-12-29T07:16:04.029Z,86.76
2018-12-29T07:18:32.674Z,86.78
2018-12-29T07:21:01.454Z,86.73
2018-12-29T07:23:29.974Z,86.92
2018-12-29T07:25:58.818Z,87.20
2018-12-29T07:28:27.607Z,86.99
2018-12-29T07:30:56.093Z,86.99
2018-12-29T07:33:24.669Z,86.80
2018-12-29T07:35:54.182Z,87.15
2018-12-29T07:38:22.655Z,86.91
2018-12-29T07:40:51.199Z,86.91
2018-12-29T07:43:19.622Z,86.86
2018-12-29T07:45:48.096Z,86.37
2018-12-29T07:48:16.535Z,86.58
2018-12-29T07:50:45.092Z,86.39
2018-12-29T07:53:13.980Z,86.39
2018-12-29T07:55:42.460Z,86.31
2018-12-29T07:58:11.027Z,85.96
2018-12-29T08:00:39.495Z,85.96
2018-12-29T08:03:08.211Z,85.84
2018-12-29T08:05:36.799Z,86.23
2018-12-29T08:08:05.456Z,86.96
2018-12-29T08:10:34.063Z,85.99
2018-12-29T08:13:02.566Z,86.36
2018-12-29T08:15:31.228Z,86.01
2018-12-29T08:17:59.955Z,85.40
2018-12-29T08:20:28.437Z,85.58
2018-12-29T08:22:56.922Z,85.34
2018-12-29T08:25:25.601Z,85.32
2018-12-29T08:27:54.195Z,84.97
2018-12-29T08:30:23.192Z,84.75
2018-12-29T08:32:54.427Z,84.75
2018-12-29T08:35:26.804Z,84.54
2018-12-29T08:37:55.362Z,84.15
2018-12-29T08:40:24.225Z,84.38
2018-12-29T08:42:54.366Z,84.38
2018-12-29T08:45:23.018Z,83.75
2018-12-29T08:47:51.612Z,83.75
2018-12-29T08:50:25.749Z,84.05
2018-12-29T08:52:54.401Z,84.14
2018-12-29T08:55:23.500Z,84.49
2018-12-29T08:57:51.947Z,84.30
2018-12-29T09:00:20.493Z,83.85
2018-12-29T09:02:49.009Z,83.68
2018-12-29T09:05:17.619Z,83.71
2018-12-29T09:07:46.072Z,83.80
2018-12-29T09:10:14.683Z,83.92
2018-12-29T09:12:43.146Z,84.09
2018-12-29T09:15:11.599Z,83.94
2018-12-29T09:17:40.108Z,84.17
2018-12-29T09:20:08.752Z,84.09
2018-12-29T09:22:37.644Z,84.06
2018-12-29T09:25:06.158Z,84.08
2018-12-29T09:27:34.646Z,84.19
2018-12-29T09:30:03.306Z,83.81
2018-12-29T09:32:33.895Z,84.25
2018-12-29T09:35:03.889Z,83.74
2018-12-29T09:37:32.454Z,83.78
2018-12-29T09:40:01.272Z,83.66
2018-12-29T09:42:29.730Z,83.97
2018-12-29T09:44:58.356Z,83.43
2018-12-29T09:47:26.876Z,83.26
2018-12-29T09:49:55.327Z,83.10
2018-12-29T09:52:23.828Z,82.83
2018-12-29T09:54:52.365Z,82.92
2018-12-29T09:57:20.864Z,82.56
2018-12-29T09:59:49.372Z,82.51
2018-12-29T10:02:17.983Z,82.26
2018-12-29T10:04:46.581Z,81.94
2018-12-29T10:07:15.058Z,82.15
2018-12-29T10:09:43.580Z,82.14
2018-12-29T10:12:12.061Z,82.26
2018-12-29T10:14:40.542Z,82.71
2018-12-29T10:17:09.313Z,81.73
2018-12-29T10:19:39.361Z,81.93
2018-12-29T10:22:07.990Z,81.49
2018-12-29T10:24:36.877Z,81.18
2018-12-29T10:27:05.618Z,79.76
2018-12-29T10:29:34.271Z,78.02
2018-12-29T10:32:02.766Z,77.98
2018-12-29T10:34:31.372Z,77.27
2018-12-29T10:36:59.940Z,77.75
2018-12-29T10:39:28.514Z,77.52
2018-12-29T10:41:57.111Z,77.09
2018-12-29T10:44:25.853Z,77.54
2018-12-29T10:46:54.533Z,76.98
2018-12-29T10:49:23.033Z,77.45
2018-12-29T10:51:51.622Z,77.63
2018-12-29T10:54:23.761Z,77.19
2018-12-29T10:56:52.528Z,77.09
2018-12-29T10:59:21.270Z,77.05
2018-12-29T11:01:50.009Z,76.91
2018-12-29T11:04:18.777Z,77.17
2018-12-29T11:06:47.534Z,77.56
2018-12-29T11:09:16.145Z,77.57
2018-12-29T11:11:44.713Z,77.48
2018-12-29T11:14:13.335Z,77.48
2018-12-29T11:16:41.951Z,77.36
2018-12-29T11:19:11.916Z,77.25
2018-12-29T11:21:40.357Z,77.23
2018-12-29T11:24:08.920Z,77.12
2018-12-29T11:26:37.505Z,77.25
2018-12-29T11:29:06.174Z,77.02
2018-12-29T11:31:34.688Z,77.07
2018-12-29T11:34:04.605Z,77.43
2018-12-29T11:36:33.212Z,77.40
2018-12-29T11:39:01.691Z,77.18
2018-12-29T11:41:30.157Z,77.23
2018-12-29T11:43:58.766Z,76.51
2018-12-29T11:46:27.376Z,76.86
2018-12-29T11:48:56.087Z,76.68
2018-12-29T11:51:24.550Z,76.63
2018-12-29T11:53:53.119Z,76.43
2018-12-29T11:56:21.575Z,75.92
2018-12-29T11:58:50.078Z,75.78
2018-12-29T12:01:18.517Z,75.94
2018-12-29T12:03:47.047Z,75.53
2018-12-29T12:06:15.523Z,76.00
2018-12-29T12:08:43.969Z,76.09
2018-12-29T12:11:12.455Z,75.77
2018-12-29T12:13:40.920Z,75.93
2018-12-29T12:16:09.451Z,76.12
2018-12-29T12:18:37.890Z,76.17
2018-12-29T12:21:12.382Z,76.19
2018-12-29T12:23:41.103Z,76.31
2018-12-29T12:26:09.630Z,76.25
2018-12-29T12:28:39.848Z,77.03
2018-12-29T12:31:10.248Z,76.47
2018-12-29T12:33:38.895Z,76.50
2018-12-29T12:36:07.642Z,76.34
2018-12-29T12:38:36.510Z,76.34
2018-12-29T12:41:05.094Z,76.39
2018-12-29T12:43:34.756Z,76.58
2018-12-29T12:46:03.525Z,76.95
2018-12-29T12:48:32.236Z,77.31
2018-12-29T12:51:01.090Z,77.64
2018-12-29T12:53:29.755Z,77.76
2018-12-29T12:55:58.392Z,77.76
2018-12-29T12:58:27.323Z,77.82
2018-12-29T13:00:58.098Z,78.39
2018-12-29T13:03:27.039Z,78.17
2018-12-29T13:05:55.664Z,78.73
2018-12-29T13:08:25.635Z,78.74
2018-12-29T13:10:54.230Z,78.87
2018-12-29T13:13:22.698Z,78.82
2018-12-29T13:15:51.303Z,78.87
2018-12-29T13:18:21.881Z,79.30
2018-12-29T13:20:50.384Z,79.48
2018-12-29T13:23:18.980Z,79.72
2018-12-29T13:25:47.464Z,79.83
2018-12-29T13:28:16.117Z,79.77
2018-12-29T13:30:44.732Z,79.93
2018-12-29T13:33:13.252Z,80.12
2018-12-29T13:35:41.790Z,80.22
2018-12-29T13:38:10.349Z,80.42
2018-12-29T13:40:38.799Z,80.42
2018-12-29T13:43:07.329Z,80.13
2018-12-29T13:45:35.888Z,79.95
2018-12-29T13:48:04.343Z,79.95
2018-12-29T13:50:33.005Z,79.52
2018-12-29T13:53:01.511Z,79.41
2018-12-29T13:55:30.114Z,79.44
2018-12-29T13:57:59.612Z,79.37
2018-12-29T14:00:28.159Z,78.95
2018-12-29T14:02:56.919Z,78.87
2018-12-29T14:05:25.911Z,78.57
2018-12-29T14:07:54.394Z,78.45
2018-12-29T14:10:22.928Z,78.26
2018-12-29T14:12:51.457Z,78.04
2018-12-29T14:15:19.985Z,77.84
2018-12-29T14:17:48.699Z,77.74
2018-12-29T14:20:17.323Z,77.56
2018-12-29T14:22:45.879Z,77.80
2018-12-29T14:25:14.414Z,77.50
2018-12-29T14:27:42.894Z,77.16
2018-12-29T14:30:11.839Z,76.66
2018-12-29T14:32:40.332Z,76.66
2018-12-29T14:35:08.864Z,76.57
2018-12-29T14:37:37.504Z,76.09
2018-12-29T14:40:07.043Z,76.09
2018-12-29T14:42:35.946Z,75.95
2018-12-29T14:45:04.783Z,75.81
2018-12-29T14:47:33.275Z,75.74
2018-12-29T14:50:01.927Z,75.72
2018-12-29T14:52:30.445Z,75.53
2018-12-29T14:54:59.270Z,75.50
2018-12-29T14:57:27.997Z,75.63
2018-12-29T14:59:56.643Z,75.63
2018-12-29T15:02:25.465Z,75.09
2018-12-29T15:04:54.182Z,75.42
2018-12-29T15:07:22.716Z,75.07
2018-12-29T15:09:52.837Z,75.07
2018-12-29T15:12:21.746Z,74.99
2018-12-29T15:14:50.287Z,74.94
2018-12-29T15:17:18.937Z,74.75
2018-12-29T15:19:47.476Z,74.83
2018-12-29T15:22:16.396Z,74.92
2018-12-29T15:24:45.595Z,75.05
2018-12-29T15:27:14.379Z,75.31
2018-12-29T15:32:18.534Z,76.07
2018-12-29T15:34:47.231Z,76.97
2018-12-29T15:37:15.781Z,78.28
2018-12-29T15:39:44.277Z,79.12
2018-12-29T15:42:12.737Z,79.11
2018-12-29T15:44:53.153Z,79.84
2018-12-29T15:47:11.439Z,80.54
2018-12-29T15:49:39.900Z,81.33
2018-12-29T15:52:08.323Z,81.46
2018-12-29T15:54:56.528Z,81.99
2018-12-29T15:57:25.061Z,81.66
2018-12-29T15:59:53.817Z,81.50
2018-12-29T16:02:22.446Z,82.82
2018-12-29T16:04:52.809Z,82.81
2018-12-29T16:07:21.230Z,82.86
2018-12-29T16:09:49.932Z,82.61
2018-12-29T16:12:37.654Z,82.67
2018-12-29T16:15:46.073Z,82.94
2018-12-29T16:18:14.526Z,83.44
2018-12-29T16:20:43.107Z,83.18
2018-12-29T16:23:11.633Z,83.22
2018-12-29T16:25:40.432Z,83.18
2018-12-29T16:28:08.956Z,83.34
2018-12-29T16:30:37.721Z,83.29
2018-12-29T16:33:06.240Z,83.07
2018-12-29T16:35:34.740Z,83.48
2018-12-29T16:38:06.819Z,83.42
2018-12-29T16:40:35.292Z,83.03
2018-12-29T16:43:24.640Z,83.76
2018-12-29T16:45:56.416Z,83.81
2018-12-29T16:48:25.437Z,83.63
2018-12-29T16:50:54.217Z,83.75
2018-12-29T16:53:29.246Z,84.26
2018-12-29T16:55:53.688Z,84.61
2018-12-29T16:58:22.627Z,84.64
2018-12-29T17:00:53.394Z,84.44
2018-12-29T17:03:22.140Z,84.50
2018-12-29T17:06:10.364Z,84.46
2018-12-29T17:08:38.882Z,85.09
2018-12-29T17:11:07.623Z,85.05
2018-12-29T17:13:37.414Z,85.58
2018-12-29T17:16:06.236Z,85.81
2018-12-29T17:21:31.416Z,85.31
2018-12-29T17:27:29.475Z,85.41
2018-12-29T17:30:17.804Z,85.07
2018-12-29T17:32:48.051Z,85.07
2018-12-29T17:35:17.106Z,84.73
2018-12-29T17:37:45.790Z,84.70
2018-12-29T17:40:14.837Z,84.48
2018-12-29T17:42:43.270Z,84.57
2018-12-29T17:45:12.348Z,84.85
2018-12-29T17:47:41.133Z,84.70
2018-12-29T17:50:30.193Z,84.59
2018-12-29T17:52:59.361Z,84.69
2018-12-29T17:55:47.377Z,84.61
2018-12-29T17:58:16.015Z,84.68
2018-12-29T18:00:44.809Z,85.02
2018-12-29T18:05:44.457Z,84.95
2018-12-29T18:08:13.068Z,84.80
2018-12-29T18:10:41.780Z,84.87
2018-12-29T18:13:10.454Z,84.87
2018-12-29T18:15:39.030Z,84.77
2018-12-29T18:18:07.818Z,84.36
2018-12-29T18:20:36.732Z,84.24
2018-12-29T18:23:05.601Z,84.47
2018-12-29T18:28:36.357Z,84.22
2018-12-29T18:31:05.004Z,84.60
2018-12-29T18:33:37.395Z,85.58
2018-12-29T18:36:23.930Z,85.71
2018-12-29T18:38:52.366Z,86.16
2018-12-29T18:43:58.115Z,86.43
2018-12-29T18:46:26.562Z,86.46
2018-12-29T18:48:55.107Z,86.83
2018-12-29T18:51:23.574Z,87.02
2018-12-29T18:53:52.081Z,87.08
2018-12-29T18:56:20.542Z,87.15
2018-12-29T18:59:08.410Z,87.04
2018-12-29T19:01:37.043Z,86.63
2018-12-29T19:04:05.479Z,86.63
2018-12-29T19:06:33.976Z,86.79
2018-12-29T19:11:51.598Z,86.57
2018-12-29T19:14:20.036Z,86.46
2018-12-29T19:16:48.515Z,86.24
2018-12-29T19:19:17.021Z,86.36
2018-12-29T19:21:45.659Z,86.42
2018-12-29T19:24:14.296Z,86.42
2018-12-29T19:26:44.681Z,86.84
2018-12-29T19:29:13.415Z,86.74
2018-12-29T19:31:44.613Z,87.04
2018-12-29T19:34:12.938Z,87.34
2018-12-29T19:36:42.539Z,87.20
2018-12-29T19:39:14.174Z,86.97
2018-12-29T19:41:47.999Z,86.62
2018-12-29T19:47:02.526Z,86.73
2018-12-29T19:49:31.522Z,86.73
2018-12-29T19:52:00.023Z,86.75
2018-12-29T19:56:58.886Z,87.05
2018-12-29T19:59:29.055Z,87.00
2018-12-29T20:01:57.535Z,87.07
2018-12-29T20:04:25.996Z,87.04
2018-12-29T20:06:56.146Z,87.30
2018-12-29T20:09:24.655Z,87.23
2018-12-29T20:11:53.179Z,87.22
2018-12-29T20:14:22.085Z,87.47
2018-12-29T20:16:50.731Z,87.26
2018-12-29T20:19:19.399Z,87.18
2018-12-29T20:21:48.234Z,86.79
2018-12-29T20:24:16.771Z,86.59
2018-12-29T20:26:45.741Z,86.44
2018-12-29T20:29:14.328Z,86.31
2018-12-29T20:31:42.926Z,86.24
2018-12-29T20:34:11.889Z,85.88
2018-12-29T20:36:41.070Z,86.08
2018-12-29T20:39:10.095Z,86.26
2018-12-29T20:41:38.834Z,86.36
2018-12-29T20:44:07.310Z,86.20
2018-12-29T20:46:35.787Z,85.16
2018-12-29T20:49:04.255Z,85.38
2018-12-29T20:51:33.089Z,85.17
2018-12-29T20:54:01.558Z,85.30
2018-12-29T20:56:30.003Z,85.29
2018-12-29T20:58:58.524Z,84.85
2018-12-29T21:01:26.961Z,84.60
2018-12-29T21:03:55.394Z,83.39
2018-12-29T21:06:23.852Z,82.83
2018-12-29T21:09:14.099Z,82.65
2018-12-29T21:11:42.677Z,83.00
2018-12-29T21:14:11.103Z,84.30
2018-12-29T21:16:39.644Z,85.12
2018-12-29T21:19:08.068Z,85.31
2018-12-29T21:21:48.969Z,86.73
2018-12-29T21:24:17.798Z,86.73
2018-12-29T21:32:18.487Z,87.30
2018-12-29T21:34:47.246Z,87.25
2018-12-29T21:37:15.676Z,87.75
2018-12-29T21:42:20.985Z,87.82
2018-12-29T21:47:39.866Z,88.43
2018-12-29T21:50:08.387Z,88.84
2018-12-29T21:52:36.815Z,88.59
2018-12-29T21:57:54.458Z,89.16
2018-12-29T22:00:23.191Z,89.10
2018-12-29T22:02:51.646Z,89.88
2018-12-29T22:05:20.080Z,89.96
2018-12-29T22:07:48.530Z,90.11
2018-12-29T22:10:16.972Z,90.08
2018-12-29T22:12:45.415Z,90.57
2018-12-29T22:15:13.847Z,90.57
2018-12-29T22:18:01.660Z,90.52
2018-12-29T22:20:33.442Z,90.52
2018-12-29T22:23:12.274Z,90.39
2018-12-29T22:26:01.659Z,90.63
2018-12-29T22:28:30.300Z,90.24
2018-12-29T22:30:59.102Z,90.60
2018-12-29T22:36:23.456Z,90.97
2018-12-29T22:38:52.647Z,90.44
2018-12-29T22:41:21.169Z,90.87
2018-12-29T22:43:49.732Z,91.06
2018-12-29T22:46:20.381Z,91.06
2018-12-29T22:48:48.827Z,91.15
2018-12-29T22:51:17.258Z,91.38
2018-12-29T22:53:45.748Z,91.28
2018-12-29T22:56:14.192Z,91.17
2018-12-29T22:58:44.361Z,91.22
2018-12-29T23:01:32.329Z,91.46
2018-12-29T23:04:00.743Z,91.46
2018-12-29T23:06:29.169Z,91.24
2018-12-29T23:11:33.936Z,91.47
2018-12-29T23:14:21.710Z,92.03
2018-12-29T23:17:11.382Z,91.59
2018-12-29T23:19:39.868Z,91.59
2018-12-29T23:22:08.580Z,91.71
2018-12-29T23:24:37.082Z,91.70
2018-12-29T23:27:05.544Z,91.70
2018-12-29T23:29:33.956Z,91.71
2018-12-29T23:32:02.418Z,91.92
2018-12-29T23:34:31.121Z,92.02
2018-12-29T23:37:18.912Z,91.97
2018-12-29T23:39:47.715Z,91.97
2018-12-29T23:45:11.723Z,92.20
2018-12-29T23:48:01.207Z,92.28
2018-12-29T23:50:29.651Z,92.28
2018-12-29T23:52:58.357Z,92.33
2018-12-29T23:55:27.201Z,92.19
2018-12-29T23:57:55.606Z,92.26
